Back to Top

Language: 

My Weather Underground Personal Weather Station Historical Data with Graphs...

Delerius Weather Station Historical Data
Daily Summary for February 8, 2017 Units:  Metric    English   Both
« Previous Day
Next Day »
Daily Weekly Monthly Yearly Custom
  High: Low: Average:
Temperature: 4.2 °C 1.7 °C 3.1 °C
Dew Point: 3.5 °C 0.8 °C 2.2 °C
Humidity: 97 % 88 % 94 %
Wind Speed: 6.4 km/h 0 km/h 1.9 km/h
Wind Gust: 32.2 km/h - -
Wind:- - East
Pressure: 1031.7 hPa 1020.9 hPa -
Precipitation: 0.76 mm    
Historical Graphs
 
 
Tabular Data for February 8, 2017
Time Temperature Dew Point Pressure Wind Wind Speed Wind Gust Humidity Rainfall Rate (Hourly) solar Conditions
00:00 3.5 °C 2.6 °C 1020.9 hPa Calm   32.2 km/h 94 % 0 mm 0 W/m2
00:05 3.6 °C 2.8 °C 1021.2 hPa Calm   32.2 km/h 95 % 0 mm 0 W/m2
00:15 3.6 °C 2.8 °C 1021.2 hPa Calm     95 % 0 mm 0 W/m2
00:25 3.4 °C 2.5 °C 1021.2 hPa Calm     94 % 0 mm 0 W/m2
00:30 3.3 °C 2.4 °C 1021.2 hPa Calm     94 % 0 mm 0 W/m2
00:35 3.3 °C 2.4 °C 1021.2 hPa Calm     94 % 0 mm 0 W/m2
00:40 3.2 °C 2.5 °C 1021.2 hPa Calm     95 % 0 mm 0 W/m2
00:45 3.2 °C 2.3 °C 1021.2 hPa Calm     94 % 0 mm 0 W/m2
00:50 3.1 °C 2.2 °C 1021.2 hPa Calm     94 % 0 mm 0 W/m2
01:00 2.8 °C 1.9 °C 1021.2 hPa Calm     94 % 0 mm 0 W/m2
01:05 2.8 °C 1.9 °C 1021.2 hPa Calm   3.2 km/h 94 % 0 mm 0 W/m2
01:10 2.8 °C 2.1 °C 1021.2 hPa Calm   3.2 km/h 95 % 0 mm 0 W/m2
01:15 2.8 °C 2.1 °C 1021.2 hPa Calm   3.2 km/h 95 % 0 mm 0 W/m2
01:20 2.7 °C 2 °C 1021.2 hPa Calm   3.2 km/h 95 % 0 mm 0 W/m2
01:30 2.7 °C 1.9 °C 1021.2 hPa Calm   3.2 km/h 95 % 0 mm 0 W/m2
01:35 2.6 °C 1.7 °C 1021.2 hPa Calm   3.2 km/h 94 % 0 mm 0 W/m2
01:40 2.3 °C 1.4 °C 1021.6 hPa Calm   3.2 km/h 94 % 0 mm 0 W/m2
01:45 2.2 °C 1.3 °C 1021.6 hPa Calm   3.2 km/h 94 % 0 mm 0 W/m2
01:50 2.2 °C 1.4 °C 1021.6 hPa Calm   3.2 km/h 95 % 0 mm 0 W/m2
01:55 2.1 °C 1.4 °C 1021.9 hPa Calm   3.2 km/h 95 % 0 mm 0 W/m2
02:05 2.1 °C 1.4 °C 1021.9 hPa Calm   3.2 km/h 95 % 0 mm 0 W/m2
02:10 2.2 °C 1.4 °C 1021.9 hPa Calm   3.2 km/h 95 % 0 mm 0 W/m2
02:15 2.2 °C 1.7 °C 1021.9 hPa Calm   3.2 km/h 96 % 0 mm 0 W/m2
02:20 2.2 °C 1.5 °C 1021.9 hPa Calm   3.2 km/h 95 % 0 mm 0 W/m2
02:25 2.2 °C 1.5 °C 1022.2 hPa Calm   3.2 km/h 95 % 0 mm 0 W/m2
02:35 2.3 °C 1.7 °C 1022.2 hPa Calm   3.2 km/h 96 % 0 mm 0 W/m2
02:40 2.3 °C 1.6 °C 1022.2 hPa Calm   3.2 km/h 95 % 0 mm 0 W/m2
02:45 2.2 °C 1.5 °C 1022.2 hPa Calm   3.2 km/h 95 % 0 mm 0 W/m2
02:50 2.2 °C 1.5 °C 1022.2 hPa Calm   3.2 km/h 95 % 0 mm 0 W/m2
02:55 2.3 °C 1.7 °C 1022.2 hPa Calm   3.2 km/h 96 % 0 mm 0 W/m2
03:10 2.4 °C 1.8 °C 1022.6 hPa Calm   3.2 km/h 96 % 0 mm 0 W/m2
03:15 2.4 °C 1.9 °C 1022.6 hPa Calm   3.2 km/h 96 % 0 mm 0 W/m2
03:20 2.5 °C 1.9 °C 1022.6 hPa Calm   3.2 km/h 96 % 0 mm 0 W/m2
03:25 2.5 °C 1.9 °C 1022.6 hPa Calm   3.2 km/h 96 % 0 mm 0 W/m2
03:30 2.6 °C 2 °C 1022.9 hPa Calm   3.2 km/h 96 % 0 mm 0 W/m2
03:40 2.6 °C 2.1 °C 1022.9 hPa Calm   3.2 km/h 96 % 0 mm 0 W/m2
03:45 2.7 °C 2.1 °C 1023.2 hPa Calm   3.2 km/h 96 % 0 mm 0 W/m2
03:50 2.7 °C 2.2 °C 1023.2 hPa Calm   3.2 km/h 96 % 0 mm 0 W/m2
03:55 2.7 °C 2.2 °C 1023.2 hPa Calm   3.2 km/h 96 % 0 mm 0 W/m2
04:00 2.8 °C 2.3 °C 1023.2 hPa Calm   3.2 km/h 96 % 0 mm 0 W/m2
04:05 2.9 °C 2.4 °C 1023.6 hPa Calm   3.2 km/h 96 % 0 mm 0 W/m2
04:15 3.2 °C 2.7 °C 1023.6 hPa NNE 1.6 km/h 6.4 km/h 96 % 0 mm 0 W/m2
04:20 3.3 °C 2.8 °C 1023.6 hPa NNE 3.2 km/h 6.4 km/h 96 % 0 mm 0 W/m2
04:25 3.4 °C 2.8 °C 1023.6 hPa NE 4.8 km/h 6.4 km/h 96 % 0 mm 0 W/m2
04:30 3.5 °C 2.9 °C 1023.9 hPa NNE 3.2 km/h 3.2 km/h 96 % 0 mm 0 W/m2
04:35 3.6 °C 3 °C 1023.9 hPa NNE 1.6 km/h 3.2 km/h 96 % 0 mm 0 W/m2
04:45 3.6 °C 3.1 °C 1023.9 hPa NNE 1.6 km/h 3.2 km/h 96 % 0 mm 0 W/m2
04:50 3.6 °C 3.1 °C 1023.9 hPa NNE 1.6 km/h 1.6 km/h 96 % 0 mm 0 W/m2
04:55 3.6 °C 3.1 °C 1023.9 hPa NE 1.6 km/h 3.2 km/h 96 % 0 mm 0 W/m2
05:00 3.7 °C 3.1 °C 1024.3 hPa North 1.6 km/h 3.2 km/h 96 % 0 mm 0 W/m2
05:05 3.7 °C 3.1 °C 1024.3 hPa NNE 1.6 km/h 3.2 km/h 96 % 0 mm 0 W/m2
05:15 3.8 °C 3.2 °C 1024.3 hPa NNE 3.2 km/h 4.8 km/h 96 % 0 mm 0 W/m2
05:20 3.8 °C 3.2 °C 1024.6 hPa NNE 3.2 km/h 4.8 km/h 96 % 0 mm 0 W/m2
05:25 3.8 °C 3.3 °C 1024.6 hPa NE 4.8 km/h 4.8 km/h 96 % 0 mm 0 W/m2
05:30 3.8 °C 3.3 °C 1024.6 hPa NE 3.2 km/h 3.2 km/h 96 % 0 mm 0 W/m2
05:35 3.9 °C 3.3 °C 1024.6 hPa Calm   3.2 km/h 96 % 0 mm 0 W/m2
05:40 3.9 °C 3.3 °C 1024.6 hPa Calm   3.2 km/h 96 % 0 mm 0 W/m2
05:50 3.9 °C 3.4 °C 1024.9 hPa ENE 1.6 km/h 1.6 km/h 96 % 0 mm 0 W/m2
05:55 4 °C 3.4 °C 1024.9 hPa Calm   8 km/h 96 % 0 mm 0 W/m2
06:00 4 °C 3.4 °C 1024.9 hPa ENE 1.6 km/h 1.6 km/h 96 % 0 mm 0 W/m2
06:10 4.1 °C 3.5 °C 1024.9 hPa East 1.6 km/h 1.6 km/h 96 % 0 mm 0 W/m2
06:15 4.1 °C 3.5 °C 1024.9 hPa ENE 1.6 km/h 3.2 km/h 96 % 0 mm 0 W/m2
06:20 4 °C 3.4 °C 1024.9 hPa East 1.6 km/h 1.6 km/h 96 % 0 mm 0 W/m2
06:30 4 °C 3.4 °C 1025.3 hPa NE 3.2 km/h 3.2 km/h 96 % 0 mm 0 W/m2
06:35 4 °C 3.4 °C 1025.3 hPa ENE 3.2 km/h 3.2 km/h 96 % 0 mm 0 W/m2
06:40 3.9 °C 3.4 °C 1025.3 hPa East 3.2 km/h 4.8 km/h 96 % 0 mm 0 W/m2
06:45 3.9 °C 3.4 °C 1025.3 hPa ENE 1.6 km/h 4.8 km/h 96 % 0 mm 0 W/m2
06:50 3.9 °C 3.5 °C 1025.3 hPa East 1.6 km/h 6.4 km/h 97 % 0 mm 0 W/m2
07:00 3.9 °C 3.4 °C 1025.3 hPa East 4.8 km/h 8 km/h 97 % 0 mm 0 W/m2
07:05 3.8 °C 3.4 °C 1025.6 hPa NE 6.4 km/h 8 km/h 97 % 0 mm 0 W/m2
07:10 3.8 °C 3.4 °C 1026 hPa ENE 4.8 km/h 4.8 km/h 97 % 0 mm 0 W/m2
07:15 3.8 °C 3.3 °C 1026 hPa ENE 3.2 km/h 8 km/h 97 % 0 mm 0 W/m2
07:20 3.7 °C 3.3 °C 1026 hPa ESE 4.8 km/h 4.8 km/h 97 % 0 mm 0 W/m2
07:30 3.6 °C 3.1 °C 1026.3 hPa ESE 4.8 km/h 4.8 km/h 96 % 0 mm 0 W/m2
07:35 3.6 °C 3.1 °C 1026.3 hPa East 4.8 km/h 4.8 km/h 96 % 0 mm 0 W/m2
07:40 3.6 °C 3.1 °C 1026.3 hPa ESE 4.8 km/h 4.8 km/h 96 % 0 mm 0 W/m2
07:45 3.6 °C 3.1 °C 1026.6 hPa ESE 4.8 km/h 6.4 km/h 97 % 0 mm 0 W/m2
07:50 3.6 °C 3.2 °C 1026.6 hPa ESE 3.2 km/h 6.4 km/h 97 % 0 mm 0 W/m2
07:55 3.6 °C 3.1 °C 1026.6 hPa East 3.2 km/h 8 km/h 97 % 0 mm 0 W/m2
08:05 3.5 °C 3.1 °C 1026.6 hPa East 3.2 km/h 6.4 km/h 97 % 1.27 mm 5 W/m2
08:10 3.5 °C 3.1 °C 1026.6 hPa East 3.2 km/h 3.2 km/h 97 % 1.27 mm 5 W/m2
08:15 3.5 °C 3.1 °C 1027 hPa East 1.6 km/h 9.7 km/h 97 % 1.52 mm 5 W/m2
08:20 3.4 °C 2.9 °C 1027 hPa ESE 1.6 km/h 1.6 km/h 96 % 1.52 mm 5 W/m2
08:25 3.4 °C 2.9 °C 1027 hPa ENE 1.6 km/h 3.2 km/h 96 % 1.27 mm 0 W/m2
08:35 3.4 °C 2.8 °C 1027.3 hPa East 3.2 km/h 3.2 km/h 96 % 1.02 mm 0 W/m2
08:40 3.3 °C 2.8 °C 1027.3 hPa East 4.8 km/h 6.4 km/h 96 % 1.02 mm 5 W/m2
08:45 3.3 °C 2.8 °C 1027.3 hPa East 3.2 km/h 6.4 km/h 97 % 0 mm 5 W/m2
08:50 3.3 °C 2.8 °C 1027.3 hPa East 3.2 km/h 3.2 km/h 97 % 0 mm 5 W/m2
08:55 3.3 °C 2.8 °C 1027.3 hPa ENE 3.2 km/h 6.4 km/h 97 % 0 mm 5 W/m2
09:00 3.2 °C 2.8 °C 1027.3 hPa ENE 3.2 km/h 8 km/h 97 % 0 mm 5 W/m2
09:10 3.2 °C 2.8 °C 1027.3 hPa East 4.8 km/h 4.8 km/h 97 % 0 mm 5 W/m2
09:15 3.2 °C 2.7 °C 1027.7 hPa East 4.8 km/h 4.8 km/h 97 % 0 mm 5 W/m2
09:20 3.2 °C 2.7 °C 1027.7 hPa East 4.8 km/h 8 km/h 97 % 0 mm 5 W/m2
09:25 3.2 °C 2.7 °C 1027.7 hPa ESE 3.2 km/h 8 km/h 97 % 0 mm 7 W/m2
09:30 3.2 °C 2.7 °C 1027.7 hPa East 4.8 km/h 4.8 km/h 97 % 0 mm 7 W/m2
09:40 3.2 °C 2.7 °C 1027.7 hPa ESE 3.2 km/h 8 km/h 97 % 0 mm 19 W/m2
09:45 3.2 °C 2.7 °C 1027.7 hPa East 3.2 km/h 8 km/h 97 % 0 mm 21 W/m2
09:50 3.2 °C 2.7 °C 1027.7 hPa ESE 3.2 km/h 6.4 km/h 97 % 0 mm 18 W/m2
09:55 3.1 °C 2.7 °C 1027.7 hPa ESE 3.2 km/h 6.4 km/h 97 % 0 mm 19 W/m2
10:00 3.1 °C 2.7 °C 1027.7 hPa ENE 4.8 km/h 4.8 km/h 97 % 0 mm 18 W/m2
10:05 3.2 °C 2.7 °C 1027.7 hPa East 3.2 km/h 4.8 km/h 97 % 0 mm 14 W/m2
10:15 3.2 °C 2.7 °C 1028 hPa East 3.2 km/h 3.2 km/h 97 % 0 mm 47 W/m2
10:20 3.2 °C 2.7 °C 1028 hPa East 1.6 km/h 3.2 km/h 97 % 0 mm 35 W/m2
10:25 3.2 °C 2.8 °C 1028 hPa East 1.6 km/h 3.2 km/h 97 % 0 mm 33 W/m2
10:30 3.2 °C 2.8 °C 1028 hPa East 1.6 km/h 1.6 km/h 97 % 0 mm 32 W/m2
10:35 3.2 °C 2.8 °C 1028 hPa East 1.6 km/h 3.2 km/h 97 % 0 mm 44 W/m2
10:45 3.3 °C 2.8 °C 1028 hPa ENE 1.6 km/h 4.8 km/h 97 % 0 mm 40 W/m2
10:50 3.2 °C 2.8 °C 1028.3 hPa ENE 1.6 km/h 3.2 km/h 97 % 0 mm 35 W/m2
10:55 3.2 °C 2.8 °C 1028.3 hPa East 3.2 km/h 3.2 km/h 97 % 0 mm 39 W/m2
11:00 3.2 °C 2.8 °C 1028.3 hPa ENE 3.2 km/h 3.2 km/h 97 % 0 mm 32 W/m2
11:05 3.2 °C 2.8 °C 1028.3 hPa ENE 3.2 km/h 3.2 km/h 97 % 0 mm 33 W/m2
11:10 3.2 °C 2.8 °C 1028.3 hPa ENE 3.2 km/h 3.2 km/h 97 % 0 mm 47 W/m2
11:20 3.3 °C 2.8 °C 1028.3 hPa East 1.6 km/h 1.6 km/h 97 % 0 mm 72 W/m2
11:25 3.3 °C 2.8 °C 1028.7 hPa East 1.6 km/h 3.2 km/h 97 % 0 mm 70 W/m2
11:30 3.3 °C 2.9 °C 1028.7 hPa ESE 1.6 km/h 3.2 km/h 97 % 0 mm 84 W/m2
11:35 3.3 °C 2.9 °C 1028.7 hPa ESE 1.6 km/h 3.2 km/h 97 % 0 mm 76 W/m2
11:40 3.3 °C 2.9 °C 1028.7 hPa ESE 1.6 km/h 3.2 km/h 97 % 0 mm 83 W/m2
11:50 3.4 °C 2.8 °C 1028.7 hPa East 3.2 km/h 3.2 km/h 96 % 0 mm 97 W/m2
11:55 3.4 °C 3 °C 1028.7 hPa East 3.2 km/h 3.2 km/h 97 % 0 mm 98 W/m2
12:00 3.5 °C 3.1 °C 1028.7 hPa ESE 1.6 km/h 4.8 km/h 97 % 0 mm 93 W/m2
12:05 3.6 °C 3.1 °C 1028.7 hPa ENE 1.6 km/h 4.8 km/h 97 % 0 mm 109 W/m2
12:10 3.6 °C 3.1 °C 1028.7 hPa ENE 1.6 km/h 1.6 km/h 96 % 0 mm 105 W/m2
12:15 3.6 °C 3 °C 1028.7 hPa East 1.6 km/h 3.2 km/h 96 % 0 mm 72 W/m2
12:25 3.6 °C 3 °C 1029 hPa ENE 1.6 km/h 3.2 km/h 96 % 0 mm 65 W/m2
12:30 3.6 °C 3 °C 1029 hPa East 1.6 km/h 3.2 km/h 96 % 0 mm 47 W/m2
12:35 3.5 °C 2.8 °C 1029 hPa East 1.6 km/h 3.2 km/h 95 % 0 mm 23 W/m2
12:40 3.4 °C 2.7 °C 1029 hPa East 1.6 km/h 1.6 km/h 95 % 0 mm 26 W/m2
12:50 3.5 °C 2.8 °C 1029 hPa NE 3.2 km/h 9.7 km/h 95 % 0 mm 32 W/m2
12:55 3.4 °C 2.7 °C 1029 hPa ENE 3.2 km/h 9.7 km/h 95 % 0 mm 81 W/m2
13:00 3.4 °C 2.7 °C 1029 hPa East 3.2 km/h 9.7 km/h 95 % 0 mm 91 W/m2
13:05 3.5 °C 2.8 °C 1029 hPa East 3.2 km/h 9.7 km/h 95 % 0 mm 125 W/m2
13:15 3.6 °C 2.7 °C 1029 hPa East 4.8 km/h 4.8 km/h 94 % 0 mm 98 W/m2
13:20 3.6 °C 2.7 °C 1029 hPa ENE 1.6 km/h 3.2 km/h 94 % 0 mm 132 W/m2
13:25 3.7 °C 2.8 °C 1028.7 hPa East 1.6 km/h 3.2 km/h 94 % 0 mm 176 W/m2
13:30 3.8 °C 2.9 °C 1029 hPa ENE 1.6 km/h 1.6 km/h 94 % 0 mm 149 W/m2
13:40 3.9 °C 2.9 °C 1029 hPa ENE 3.2 km/h 8 km/h 93 % 0 mm 135 W/m2
13:45 3.9 °C 2.7 °C 1029 hPa ENE 4.8 km/h 8 km/h 92 % 0 mm 123 W/m2
13:50 3.9 °C 2.7 °C 1029 hPa East 4.8 km/h 9.7 km/h 92 % 0 mm 121 W/m2
13:55 3.9 °C 2.6 °C 1029 hPa ENE 4.8 km/h 9.7 km/h 91 % 0 mm 98 W/m2
14:05 3.9 °C 2.6 °C 1029 hPa East 3.2 km/h 6.4 km/h 91 % 0 mm 302 W/m2
14:10 4 °C 2.7 °C 1029 hPa ESE 3.2 km/h 3.2 km/h 91 % 0 mm 176 W/m2
14:15 4.1 °C 2.7 °C 1029.3 hPa ESE 1.6 km/h 3.2 km/h 91 % 0 mm 137 W/m2
14:20 4.2 °C 2.7 °C 1029.3 hPa East 1.6 km/h 3.2 km/h 90 % 0 mm 56 W/m2
14:25 4.1 °C 2.4 °C 1029.3 hPa ESE 3.2 km/h 11.3 km/h 89 % 0 mm 51 W/m2
14:35 4.1 °C 2.4 °C 1029.3 hPa East 4.8 km/h 4.8 km/h 89 % 0 mm 77 W/m2
14:40 3.9 °C 2.3 °C 1029 hPa ENE 3.2 km/h 3.2 km/h 89 % 0 mm 113 W/m2
14:45 4 °C 2.3 °C 1029.3 hPa NE 1.6 km/h 6.4 km/h 89 % 0 mm 51 W/m2
14:50 3.9 °C 2.3 °C 1029.3 hPa East 3.2 km/h 3.2 km/h 89 % 0 mm 28 W/m2
14:55 3.9 °C 2.2 °C 1029.3 hPa NE 4.8 km/h 8 km/h 89 % 0 mm 21 W/m2
15:00 3.8 °C 2.3 °C 1029.3 hPa East 4.8 km/h 4.8 km/h 90 % 0 mm 47 W/m2
15:10 3.7 °C 2.2 °C 1029.3 hPa East 3.2 km/h 3.2 km/h 90 % 0 mm 79 W/m2
15:15 3.6 °C 2.2 °C 1029.3 hPa East 3.2 km/h 3.2 km/h 91 % 0 mm 72 W/m2
15:20 3.5 °C 2.2 °C 1029.3 hPa ENE 4.8 km/h 4.8 km/h 91 % 0 mm 72 W/m2
15:25 3.4 °C 2.1 °C 1029.3 hPa ENE 4.8 km/h 4.8 km/h 91 % 0 mm 76 W/m2
15:30 3.4 °C 2.1 °C 1029.3 hPa ENE 3.2 km/h 9.7 km/h 91 % 0 mm 76 W/m2
15:40 3.4 °C 2.1 °C 1029.3 hPa ENE 1.6 km/h 4.8 km/h 91 % 0 mm 70 W/m2
15:45 3.4 °C 2.2 °C 1029.7 hPa East 1.6 km/h 4.8 km/h 92 % 0 mm 49 W/m2
15:50 3.4 °C 2.2 °C 1029.7 hPa East 1.6 km/h 1.6 km/h 92 % 0 mm 56 W/m2
15:55 3.5 °C 2.3 °C 1029.7 hPa Calm   8 km/h 92 % 0 mm 42 W/m2
16:00 3.5 °C 2.3 °C 1029.7 hPa Calm   3.2 km/h 92 % 0 mm 37 W/m2
16:05 3.4 °C 2.3 °C 1029.7 hPa East 1.6 km/h 3.2 km/h 92 % 0 mm 47 W/m2
16:15 3.4 °C 2.1 °C 1029.7 hPa NE 1.6 km/h 3.2 km/h 91 % 0 mm 42 W/m2
16:20 3.3 °C 2 °C 1029.7 hPa Calm   3.2 km/h 91 % 0 mm 28 W/m2
16:25 3.3 °C 2 °C 1029.7 hPa NE 1.6 km/h 3.2 km/h 91 % 0 mm 18 W/m2
16:30 3.3 °C 2 °C 1029.7 hPa ENE 1.6 km/h 1.6 km/h 91 % 0 mm 12 W/m2
16:35 3.3 °C 1.9 °C 1029.7 hPa SE 1.6 km/h 8 km/h 91 % 0 mm 11 W/m2
16:45 3.3 °C 1.9 °C 1030 hPa SE 1.6 km/h 3.2 km/h 91 % 0 mm 9 W/m2
16:50 3.2 °C 1.9 °C 1030 hPa Calm   3.2 km/h 91 % 0 mm 5 W/m2
16:55 3.2 °C 1.8 °C 1030 hPa Calm   3.2 km/h 91 % 0 mm 0 W/m2
17:00 3.2 °C 1.8 °C 1030 hPa Calm   3.2 km/h 91 % 0 mm 0 W/m2
17:05 3.1 °C 1.8 °C 1030 hPa Calm   3.2 km/h 91 % 0 mm 0 W/m2
17:10 3.1 °C 1.8 °C 1030 hPa Calm   3.2 km/h 91 % 0 mm 0 W/m2
17:20 3.1 °C 1.7 °C 1030.4 hPa NE 1.6 km/h 3.2 km/h 91 % 0 mm 0 W/m2
17:25 3 °C 1.7 °C 1030.4 hPa NE 3.2 km/h 3.2 km/h 91 % 0 mm 0 W/m2
17:30 3 °C 1.5 °C 1030.4 hPa ENE 4.8 km/h 4.8 km/h 90 % 0 mm 0 W/m2
17:35 3 °C 1.5 °C 1030.4 hPa East 3.2 km/h 4.8 km/h 90 % 0 mm 0 W/m2
17:40 2.9 °C 1.4 °C 1030.4 hPa East 1.6 km/h 1.6 km/h 90 % 0 mm 0 W/m2
17:50 2.9 °C 1.4 °C 1030.4 hPa East 3.2 km/h 3.2 km/h 90 % 0 mm 0 W/m2
17:55 2.9 °C 1.4 °C 1030.4 hPa ENE 3.2 km/h 4.8 km/h 90 % 0 mm 0 W/m2
18:00 2.8 °C 1.2 °C 1030.4 hPa ENE 3.2 km/h 6.4 km/h 89 % 0 mm 0 W/m2
18:05 2.7 °C 1.1 °C 1030.7 hPa ENE 4.8 km/h 6.4 km/h 89 % 0 mm 0 W/m2
18:15 2.6 °C 0.8 °C 1030.7 hPa East 3.2 km/h 4.8 km/h 88 % 0 mm 0 W/m2
18:20 2.6 °C 0.8 °C 1030.7 hPa ENE 3.2 km/h 3.2 km/h 88 % 0 mm 0 W/m2
18:25 2.6 °C 0.8 °C 1030.7 hPa ENE 3.2 km/h 3.2 km/h 88 % 0 mm 0 W/m2
18:35 2.6 °C 0.9 °C 1031 hPa ENE 1.6 km/h 3.2 km/h 89 % 0 mm 0 W/m2
18:40 2.6 °C 0.9 °C 1031 hPa East 1.6 km/h 3.2 km/h 89 % 0 mm 0 W/m2
18:45 2.5 °C 0.9 °C 1031 hPa ESE 1.6 km/h 3.2 km/h 89 % 0 mm 0 W/m2
18:50 2.5 °C 0.9 °C 1031 hPa ENE 1.6 km/h 1.6 km/h 89 % 0 mm 0 W/m2
19:00 2.5 °C 1 °C 1031 hPa ENE 1.6 km/h 1.6 km/h 90 % 0 mm 0 W/m2
19:05 2.5 °C 1 °C 1031 hPa ENE 1.6 km/h 3.2 km/h 90 % 0 mm 0 W/m2
19:10 2.4 °C 0.9 °C 1031 hPa ENE 1.6 km/h 1.6 km/h 90 % 0 mm 0 W/m2
19:15 2.4 °C 0.9 °C 1031 hPa East 1.6 km/h 3.2 km/h 90 % 0 mm 0 W/m2
19:20 2.4 °C 0.9 °C 1031 hPa East 1.6 km/h 1.6 km/h 90 % 0 mm 0 W/m2
19:30 2.4 °C 1.1 °C 1031 hPa ENE 1.6 km/h 1.6 km/h 91 % 0 mm 0 W/m2
19:35 2.4 °C 1.1 °C 1031 hPa ENE 3.2 km/h 6.4 km/h 91 % 0 mm 0 W/m2
19:40 2.4 °C 1.1 °C 1031 hPa ENE 3.2 km/h 11.3 km/h 91 % 0 mm 0 W/m2
19:45 2.4 °C 1.3 °C 1031 hPa ENE 3.2 km/h 11.3 km/h 92 % 0 mm 0 W/m2
19:50 2.4 °C 1.3 °C 1031 hPa ENE 1.6 km/h 3.2 km/h 92 % 0 mm 0 W/m2
19:55 2.4 °C 1.2 °C 1031 hPa ENE 1.6 km/h 3.2 km/h 92 % 0 mm 0 W/m2
20:05 2.4 °C 1.2 °C 1031 hPa ENE 1.6 km/h 3.2 km/h 92 % 0 mm 0 W/m2
20:10 2.4 °C 1.2 °C 1031.4 hPa East 1.6 km/h 3.2 km/h 92 % 0 mm 0 W/m2
20:15 2.3 °C 1.2 °C 1031.4 hPa ENE 1.6 km/h 3.2 km/h 92 % 0 mm 0 W/m2
20:20 2.3 °C 1.2 °C 1031 hPa ENE 1.6 km/h 1.6 km/h 92 % 0 mm 0 W/m2
20:25 2.3 °C 1.3 °C 1031 hPa Calm   3.2 km/h 93 % 0 mm 0 W/m2
20:35 2.3 °C 1.1 °C 1031 hPa SE 4.8 km/h 6.4 km/h 92 % 0 mm 0 W/m2
20:40 2.2 °C 1.1 °C 1031 hPa East 4.8 km/h 4.8 km/h 92 % 0 mm 0 W/m2
20:45 2.3 °C 1.1 °C 1031.4 hPa ESE 3.2 km/h 4.8 km/h 92 % 0 mm 0 W/m2
20:50 2.3 °C 1.3 °C 1031.4 hPa ESE 1.6 km/h 4.8 km/h 93 % 0 mm 0 W/m2
20:55 2.2 °C 1.2 °C 1031.4 hPa East 3.2 km/h 4.8 km/h 93 % 0 mm 0 W/m2
21:00 2.2 °C 1.2 °C 1031.4 hPa East 3.2 km/h 3.2 km/h 93 % 0 mm 0 W/m2
21:10 2.1 °C 1.1 °C 1031.4 hPa East 1.6 km/h 3.2 km/h 93 % 0 mm 0 W/m2
21:15 2.1 °C 1.1 °C 1031.4 hPa East 1.6 km/h 3.2 km/h 93 % 0 mm 0 W/m2
21:25 2.1 °C 1.1 °C 1031.4 hPa East 1.6 km/h 6.4 km/h 93 % 0 mm 0 W/m2
21:30 2.1 °C 1.1 °C 1031.4 hPa East 1.6 km/h 1.6 km/h 93 % 0 mm 0 W/m2
21:35 2.1 °C 1.1 °C 1031.7 hPa East 1.6 km/h 3.2 km/h 93 % 0 mm 0 W/m2
21:45 2.1 °C 1.1 °C 1031.7 hPa Calm   3.2 km/h 93 % 0 mm 0 W/m2
21:50 2.1 °C 1.1 °C 1031.4 hPa Calm   3.2 km/h 93 % 0 mm 0 W/m2
21:55 2.1 °C 1.1 °C 1031.4 hPa Calm   3.2 km/h 93 % 0 mm 0 W/m2
22:00 2.1 °C 1.1 °C 1031.4 hPa Calm   3.2 km/h 93 % 0 mm 0 W/m2
22:05 2 °C 1 °C 1031.4 hPa Calm   3.2 km/h 93 % 0 mm 0 W/m2
22:15 1.9 °C 0.9 °C 1031.4 hPa Calm   3.2 km/h 93 % 0 mm 0 W/m2
22:20 1.9 °C 0.9 °C 1031.4 hPa Calm   3.2 km/h 93 % 0 mm 0 W/m2
22:25 1.9 °C 0.9 °C 1031.4 hPa Calm   3.2 km/h 93 % 0 mm 0 W/m2
22:30 1.9 °C 1.1 °C 1031.4 hPa Calm   3.2 km/h 94 % 0 mm 0 W/m2
22:35 1.9 °C 1 °C 1031.4 hPa Calm   3.2 km/h 94 % 0 mm 0 W/m2
22:40 1.9 °C 0.9 °C 1031.4 hPa Calm   3.2 km/h 93 % 0 mm 0 W/m2
22:50 1.9 °C 0.9 °C 1031.4 hPa Calm   3.2 km/h 93 % 0 mm 0 W/m2
22:55 1.9 °C 1 °C 1031 hPa Calm   3.2 km/h 94 % 0 mm 0 W/m2
23:00 1.9 °C 0.9 °C 1031.4 hPa Calm   3.2 km/h 93 % 0 mm 0 W/m2
23:05 1.8 °C 0.8 °C 1031.4 hPa Calm   3.2 km/h 93 % 0 mm 0 W/m2
23:10 1.8 °C 0.9 °C 1031.4 hPa Calm   3.2 km/h 94 % 0 mm 0 W/m2
23:20 1.8 °C 0.9 °C 1031.4 hPa Calm   3.2 km/h 94 % 0 mm 0 W/m2
23:25 1.8 °C 0.9 °C 1031.4 hPa Calm   3.2 km/h 94 % 0 mm 0 W/m2
23:30 1.8 °C 0.9 °C 1031.4 hPa Calm   3.2 km/h 94 % 0 mm 0 W/m2
23:35 1.8 °C 0.9 °C 1031.4 hPa Calm   3.2 km/h 94 % 0 mm 0 W/m2
23:40 1.8 °C 0.9 °C 1031.4 hPa Calm   3.2 km/h 94 % 0 mm 0 W/m2
23:45 1.8 °C 0.9 °C 1031.4 hPa Calm   3.2 km/h 94 % 0 mm 0 W/m2
23:55 1.7 °C 0.8 °C 1031.4 hPa Calm   3.2 km/h 94 % 0 mm 0 W/m2
Delerius-Weather
Compliments of Weather Underground - 2 mb

Data updates at regular intervals.